sensor_id;sensor_type;location;lat;lon;timestamp;temperature;humidity
14277;DHT22;7222;57.346;12.150;2022-07-29T00:02:05;12.30;99.90
14277;DHT22;7222;57.346;12.150;2022-07-29T00:04:34;12.30;99.90
14277;DHT22;7222;57.346;12.150;2022-07-29T00:07:01;12.20;99.90
14277;DHT22;7222;57.346;12.150;2022-07-29T00:09:28;12.20;99.90
14277;DHT22;7222;57.346;12.150;2022-07-29T00:11:58;12.10;99.90
14277;DHT22;7222;57.346;12.150;2022-07-29T00:14:26;12.10;99.90
14277;DHT22;7222;57.346;12.150;2022-07-29T00:16:53;12.10;99.90
14277;DHT22;7222;57.346;12.150;2022-07-29T00:19:21;12.00;99.90
14277;DHT22;7222;57.346;12.150;2022-07-29T00:21:48;12.00;99.90
14277;DHT22;7222;57.346;12.150;2022-07-29T00:24:15;12.00;99.90
14277;DHT22;7222;57.346;12.150;2022-07-29T00:26:42;11.90;99.90
14277;DHT22;7222;57.346;12.150;2022-07-29T00:29:09;11.90;99.90
14277;DHT22;7222;57.346;12.150;2022-07-29T00:31:36;11.80;99.90
14277;DHT22;7222;57.346;12.150;2022-07-29T00:34:03;11.80;99.90
14277;DHT22;7222;57.346;12.150;2022-07-29T00:36:33;11.70;99.90
14277;DHT22;7222;57.346;12.150;2022-07-29T00:38:59;11.70;99.90
14277;DHT22;7222;57.346;12.150;2022-07-29T00:41:26;11.70;99.90
14277;DHT22;7222;57.346;12.150;2022-07-29T00:43:53;11.60;99.90
14277;DHT22;7222;57.346;12.150;2022-07-29T00:46:19;11.60;99.90
14277;DHT22;7222;57.346;12.150;2022-07-29T00:48:46;11.50;99.90
14277;DHT22;7222;57.346;12.150;2022-07-29T00:51:14;11.50;99.90
14277;DHT22;7222;57.346;12.150;2022-07-29T00:53:42;11.40;99.90
14277;DHT22;7222;57.346;12.150;2022-07-29T00:56:10;11.40;99.90
14277;DHT22;7222;57.346;12.150;2022-07-29T00:58:37;11.40;99.90
14277;DHT22;7222;57.346;12.150;2022-07-29T01:01:04;11.30;99.90
14277;DHT22;7222;57.346;12.150;2022-07-29T01:03:31;11.30;99.90
14277;DHT22;7222;57.346;12.150;2022-07-29T01:05:58;11.30;99.90
14277;DHT22;7222;57.346;12.150;2022-07-29T01:08:26;11.30;99.90
14277;DHT22;7222;57.346;12.150;2022-07-29T01:10:54;11.30;99.90
14277;DHT22;7222;57.346;12.150;2022-07-29T01:13:22;11.20;99.90
14277;DHT22;7222;57.346;12.150;2022-07-29T01:15:58;11.20;99.90
14277;DHT22;7222;57.346;12.150;2022-07-29T01:18:31;11.20;99.90
14277;DHT22;7222;57.346;12.150;2022-07-29T01:24:14;11.10;99.90
14277;DHT22;7222;57.346;12.150;2022-07-29T01:26:49;11.10;99.90
14277;DHT22;7222;57.346;12.150;2022-07-29T01:29:25;11.10;99.90
14277;DHT22;7222;57.346;12.150;2022-07-29T01:31:56;11.00;99.90
14277;DHT22;7222;57.346;12.150;2022-07-29T01:34:29;11.00;99.90
14277;DHT22;7222;57.346;12.150;2022-07-29T01:37:05;10.90;99.90
14277;DHT22;7222;57.346;12.150;2022-07-29T01:39:36;10.90;99.90
14277;DHT22;7222;57.346;12.150;2022-07-29T01:42:09;10.90;99.90
14277;DHT22;7222;57.346;12.150;2022-07-29T01:44:45;10.90;99.90
14277;DHT22;7222;57.346;12.150;2022-07-29T01:47:19;10.90;99.90
14277;DHT22;7222;57.346;12.150;2022-07-29T01:49:51;10.80;99.90
14277;DHT22;7222;57.346;12.150;2022-07-29T01:52:21;10.80;99.90
14277;DHT22;7222;57.346;12.150;2022-07-29T01:54:53;10.90;99.90
14277;DHT22;7222;57.346;12.150;2022-07-29T01:57:25;11.10;99.90
14277;DHT22;7222;57.346;12.150;2022-07-29T01:59:56;11.10;99.90
14277;DHT22;7222;57.346;12.150;2022-07-29T02:02:24;10.70;99.90
14277;DHT22;7222;57.346;12.150;2022-07-29T02:04:53;10.90;99.90
14277;DHT22;7222;57.346;12.150;2022-07-29T02:07:22;11.00;99.90
14277;DHT22;7222;57.346;12.150;2022-07-29T02:09:50;11.10;99.90
14277;DHT22;7222;57.346;12.150;2022-07-29T02:12:19;11.00;99.90
14277;DHT22;7222;57.346;12.150;2022-07-29T02:14:49;10.70;99.90
14277;DHT22;7222;57.346;12.150;2022-07-29T02:17:22;10.30;99.90
14277;DHT22;7222;57.346;12.150;2022-07-29T02:19:50;10.30;99.90
14277;DHT22;7222;57.346;12.150;2022-07-29T02:22:18;10.40;99.90
14277;DHT22;7222;57.346;12.150;2022-07-29T02:24:46;10.30;99.90
14277;DHT22;7222;57.346;12.150;2022-07-29T02:27:14;10.30;99.90
14277;DHT22;7222;57.346;12.150;2022-07-29T02:29:41;10.40;99.90
14277;DHT22;7222;57.346;12.150;2022-07-29T02:32:11;10.40;99.90
14277;DHT22;7222;57.346;12.150;2022-07-29T02:34:42;10.30;99.90
14277;DHT22;7222;57.346;12.150;2022-07-29T02:37:10;10.30;99.90
14277;DHT22;7222;57.346;12.150;2022-07-29T02:39:41;10.30;99.90
14277;DHT22;7222;57.346;12.150;2022-07-29T02:42:12;10.30;99.90
14277;DHT22;7222;57.346;12.150;2022-07-29T02:44:40;10.30;99.90
14277;DHT22;7222;57.346;12.150;2022-07-29T02:47:12;10.30;99.90
14277;DHT22;7222;57.346;12.150;2022-07-29T02:49:47;10.30;99.90
14277;DHT22;7222;57.346;12.150;2022-07-29T02:52:20;10.30;99.90
14277;DHT22;7222;57.346;12.150;2022-07-29T02:54:53;10.30;99.90
14277;DHT22;7222;57.346;12.150;2022-07-29T02:57:27;10.30;99.90
14277;DHT22;7222;57.346;12.150;2022-07-29T02:59:58;10.20;99.90
14277;DHT22;7222;57.346;12.150;2022-07-29T03:02:26;10.20;99.90
14277;DHT22;7222;57.346;12.150;2022-07-29T03:04:56;10.20;99.90
14277;DHT22;7222;57.346;12.150;2022-07-29T03:07:24;10.20;99.90
14277;DHT22;7222;57.346;12.150;2022-07-29T03:09:52;10.10;99.90
14277;DHT22;7222;57.346;12.150;2022-07-29T03:12:19;10.40;99.90
14277;DHT22;7222;57.346;12.150;2022-07-29T03:14:47;10.10;99.90
14277;DHT22;7222;57.346;12.150;2022-07-29T03:17:15;9.80;99.90
14277;DHT22;7222;57.346;12.150;2022-07-29T03:19:42;9.80;99.90
14277;DHT22;7222;57.346;12.150;2022-07-29T03:22:11;9.90;99.90
14277;DHT22;7222;57.346;12.150;2022-07-29T03:24:38;9.90;99.90
14277;DHT22;7222;57.346;12.150;2022-07-29T03:27:05;9.90;99.90
14277;DHT22;7222;57.346;12.150;2022-07-29T03:29:32;9.90;99.90
14277;DHT22;7222;57.346;12.150;2022-07-29T03:32:01;9.90;99.90
14277;DHT22;7222;57.346;12.150;2022-07-29T03:34:28;9.90;99.90
14277;DHT22;7222;57.346;12.150;2022-07-29T03:36:55;9.90;99.90
14277;DHT22;7222;57.346;12.150;2022-07-29T03:39:27;9.90;99.90
14277;DHT22;7222;57.346;12.150;2022-07-29T03:41:57;9.90;99.90
14277;DHT22;7222;57.346;12.150;2022-07-29T03:44:26;9.80;99.90
14277;DHT22;7222;57.346;12.150;2022-07-29T03:46:55;9.90;99.90
14277;DHT22;7222;57.346;12.150;2022-07-29T03:49:24;9.90;99.90
14277;DHT22;7222;57.346;12.150;2022-07-29T03:51:52;10.10;99.90
14277;DHT22;7222;57.346;12.150;2022-07-29T03:54:19;10.10;99.90
14277;DHT22;7222;57.346;12.150;2022-07-29T03:56:49;10.40;99.90
14277;DHT22;7222;57.346;12.150;2022-07-29T03:59:17;10.50;99.90
14277;DHT22;7222;57.346;12.150;2022-07-29T04:01:46;10.40;99.90
14277;DHT22;7222;57.346;12.150;2022-07-29T04:04:13;10.30;99.90
14277;DHT22;7222;57.346;12.150;2022-07-29T04:06:40;9.70;99.90
14277;DHT22;7222;57.346;12.150;2022-07-29T04:09:08;10.10;99.90
14277;DHT22;7222;57.346;12.150;2022-07-29T04:11:36;9.90;99.90
14277;DHT22;7222;57.346;12.150;2022-07-29T04:14:05;10.30;99.90
14277;DHT22;7222;57.346;12.150;2022-07-29T04:16:32;10.60;99.90
14277;DHT22;7222;57.346;12.150;2022-07-29T04:18:59;10.80;99.90
14277;DHT22;7222;57.346;12.150;2022-07-29T04:21:26;10.90;99.90
14277;DHT22;7222;57.346;12.150;2022-07-29T04:23:53;10.90;99.90
14277;DHT22;7222;57.346;12.150;2022-07-29T04:26:20;10.80;99.90
14277;DHT22;7222;57.346;12.150;2022-07-29T04:28:47;10.00;99.90
14277;DHT22;7222;57.346;12.150;2022-07-29T04:31:15;9.60;99.90
14277;DHT22;7222;57.346;12.150;2022-07-29T04:33:42;9.60;99.90
14277;DHT22;7222;57.346;12.150;2022-07-29T04:36:09;9.70;99.90
14277;DHT22;7222;57.346;12.150;2022-07-29T04:38:38;9.80;99.90
14277;DHT22;7222;57.346;12.150;2022-07-29T04:41:05;10.20;99.90
14277;DHT22;7222;57.346;12.150;2022-07-29T04:43:34;10.30;99.90
14277;DHT22;7222;57.346;12.150;2022-07-29T04:46:01;10.70;99.90
14277;DHT22;7222;57.346;12.150;2022-07-29T04:48:29;10.90;99.90
14277;DHT22;7222;57.346;12.150;2022-07-29T04:50:56;11.00;99.90
14277;DHT22;7222;57.346;12.150;2022-07-29T04:53:23;11.10;99.90
14277;DHT22;7222;57.346;12.150;2022-07-29T04:55:50;11.20;99.90
14277;DHT22;7222;57.346;12.150;2022-07-29T04:58:18;11.30;99.90
14277;DHT22;7222;57.346;12.150;2022-07-29T05:00:45;11.50;99.90
14277;DHT22;7222;57.346;12.150;2022-07-29T05:03:12;11.60;99.90
14277;DHT22;7222;57.346;12.150;2022-07-29T05:05:40;11.70;99.90
14277;DHT22;7222;57.346;12.150;2022-07-29T05:08:07;11.70;99.90
14277;DHT22;7222;57.346;12.150;2022-07-29T05:10:35;11.60;99.90
14277;DHT22;7222;57.346;12.150;2022-07-29T05:13:04;11.60;99.90
14277;DHT22;7222;57.346;12.150;2022-07-29T05:15:32;11.90;99.90
14277;DHT22;7222;57.346;12.150;2022-07-29T05:17:59;12.30;99.90
14277;DHT22;7222;57.346;12.150;2022-07-29T05:20:26;12.50;99.90
14277;DHT22;7222;57.346;12.150;2022-07-29T05:22:55;12.70;99.90
14277;DHT22;7222;57.346;12.150;2022-07-29T05:25:23;12.80;99.90
14277;DHT22;7222;57.346;12.150;2022-07-29T05:27:50;12.90;99.90
14277;DHT22;7222;57.346;12.150;2022-07-29T05:30:17;13.00;99.90
14277;DHT22;7222;57.346;12.150;2022-07-29T05:32:44;13.20;99.90
14277;DHT22;7222;57.346;12.150;2022-07-29T05:35:13;13.40;99.90
14277;DHT22;7222;57.346;12.150;2022-07-29T05:37:41;13.60;99.90
14277;DHT22;7222;57.346;12.150;2022-07-29T05:40:09;13.80;99.90
14277;DHT22;7222;57.346;12.150;2022-07-29T05:42:37;13.90;99.90
14277;DHT22;7222;57.346;12.150;2022-07-29T05:45:04;14.00;99.90
14277;DHT22;7222;57.346;12.150;2022-07-29T05:47:32;14.10;99.90
14277;DHT22;7222;57.346;12.150;2022-07-29T05:49:59;14.20;99.90
14277;DHT22;7222;57.346;12.150;2022-07-29T05:52:26;14.40;99.90
14277;DHT22;7222;57.346;12.150;2022-07-29T05:54:53;14.60;99.90
14277;DHT22;7222;57.346;12.150;2022-07-29T05:57:23;14.60;99.90
14277;DHT22;7222;57.346;12.150;2022-07-29T05:59:50;14.60;99.90
14277;DHT22;7222;57.346;12.150;2022-07-29T06:02:17;14.80;99.90
14277;DHT22;7222;57.346;12.150;2022-07-29T06:04:44;14.90;99.90
14277;DHT22;7222;57.346;12.150;2022-07-29T06:07:11;14.80;99.90
14277;DHT22;7222;57.346;12.150;2022-07-29T06:09:38;14.90;99.90
14277;DHT22;7222;57.346;12.150;2022-07-29T06:12:05;14.90;99.90
14277;DHT22;7222;57.346;12.150;2022-07-29T06:14:34;15.20;99.90
14277;DHT22;7222;57.346;12.150;2022-07-29T06:17:03;15.10;99.90
14277;DHT22;7222;57.346;12.150;2022-07-29T06:19:30;15.30;99.90
14277;DHT22;7222;57.346;12.150;2022-07-29T06:21:57;15.40;99.90
14277;DHT22;7222;57.346;12.150;2022-07-29T06:24:24;15.60;99.90
14277;DHT22;7222;57.346;12.150;2022-07-29T06:26:51;15.60;99.90
14277;DHT22;7222;57.346;12.150;2022-07-29T06:29:18;15.80;99.90
14277;DHT22;7222;57.346;12.150;2022-07-29T06:31:47;15.90;99.90
14277;DHT22;7222;57.346;12.150;2022-07-29T06:34:14;16.00;99.90
14277;DHT22;7222;57.346;12.150;2022-07-29T06:36:41;16.30;99.90
14277;DHT22;7222;57.346;12.150;2022-07-29T06:39:08;16.30;99.90
14277;DHT22;7222;57.346;12.150;2022-07-29T06:41:35;16.60;99.90
14277;DHT22;7222;57.346;12.150;2022-07-29T06:44:03;16.60;99.90
14277;DHT22;7222;57.346;12.150;2022-07-29T06:46:30;16.90;99.90
14277;DHT22;7222;57.346;12.150;2022-07-29T06:48:59;17.00;99.90
14277;DHT22;7222;57.346;12.150;2022-07-29T06:51:26;17.10;99.90
14277;DHT22;7222;57.346;12.150;2022-07-29T06:53:54;17.20;99.90
14277;DHT22;7222;57.346;12.150;2022-07-29T06:56:22;17.20;99.90
14277;DHT22;7222;57.346;12.150;2022-07-29T06:58:50;17.40;99.90
14277;DHT22;7222;57.346;12.150;2022-07-29T07:01:17;17.60;99.90
14277;DHT22;7222;57.346;12.150;2022-07-29T07:03:44;17.80;99.90
14277;DHT22;7222;57.346;12.150;2022-07-29T07:06:12;18.10;99.90
14277;DHT22;7222;57.346;12.150;2022-07-29T07:08:39;18.50;99.90
14277;DHT22;7222;57.346;12.150;2022-07-29T07:11:06;19.00;99.90
14277;DHT22;7222;57.346;12.150;2022-07-29T07:13:34;19.20;99.90
14277;DHT22;7222;57.346;12.150;2022-07-29T07:16:01;19.30;99.90
14277;DHT22;7222;57.346;12.150;2022-07-29T07:18:28;19.80;99.90
14277;DHT22;7222;57.346;12.150;2022-07-29T07:20:56;20.10;99.90
14277;DHT22;7222;57.346;12.150;2022-07-29T07:23:24;20.10;99.90
14277;DHT22;7222;57.346;12.150;2022-07-29T07:25:51;20.10;99.90
14277;DHT22;7222;57.346;12.150;2022-07-29T07:28:21;20.00;99.90
14277;DHT22;7222;57.346;12.150;2022-07-29T07:30:48;19.40;99.90
14277;DHT22;7222;57.346;12.150;2022-07-29T07:33:15;19.30;99.90
14277;DHT22;7222;57.346;12.150;2022-07-29T07:35:42;19.90;99.90
14277;DHT22;7222;57.346;12.150;2022-07-29T07:38:09;20.40;99.90
14277;DHT22;7222;57.346;12.150;2022-07-29T07:40:38;20.10;99.90
14277;DHT22;7222;57.346;12.150;2022-07-29T07:43:05;19.90;99.90
14277;DHT22;7222;57.346;12.150;2022-07-29T07:45:32;20.80;99.90
14277;DHT22;7222;57.346;12.150;2022-07-29T07:47:59;20.70;99.90
14277;DHT22;7222;57.346;12.150;2022-07-29T07:50:26;20.90;99.90
14277;DHT22;7222;57.346;12.150;2022-07-29T07:52:55;20.50;99.90
14277;DHT22;7222;57.346;12.150;2022-07-29T07:55:23;20.60;99.90
14277;DHT22;7222;57.346;12.150;2022-07-29T07:57:52;20.90;99.90
14277;DHT22;7222;57.346;12.150;2022-07-29T08:00:19;21.10;99.90
14277;DHT22;7222;57.346;12.150;2022-07-29T08:02:46;21.50;99.90
14277;DHT22;7222;57.346;12.150;2022-07-29T08:05:13;22.10;99.90
14277;DHT22;7222;57.346;12.150;2022-07-29T08:07:43;21.40;99.90
14277;DHT22;7222;57.346;12.150;2022-07-29T08:10:10;22.80;99.90
14277;DHT22;7222;57.346;12.150;2022-07-29T08:12:37;23.20;99.90
14277;DHT22;7222;57.346;12.150;2022-07-29T08:15:07;22.70;99.90
14277;DHT22;7222;57.346;12.150;2022-07-29T08:17:34;22.90;99.90
14277;DHT22;7222;57.346;12.150;2022-07-29T08:20:01;23.60;99.90
14277;DHT22;7222;57.346;12.150;2022-07-29T08:22:28;23.40;99.90
14277;DHT22;7222;57.346;12.150;2022-07-29T08:24:55;22.90;99.90
14277;DHT22;7222;57.346;12.150;2022-07-29T08:27:22;23.50;99.90
14277;DHT22;7222;57.346;12.150;2022-07-29T08:29:51;22.50;99.90
14277;DHT22;7222;57.346;12.150;2022-07-29T08:32:20;21.80;99.90
14277;DHT22;7222;57.346;12.150;2022-07-29T08:34:47;23.30;99.90
14277;DHT22;7222;57.346;12.150;2022-07-29T08:37:14;24.60;99.90
14277;DHT22;7222;57.346;12.150;2022-07-29T08:39:41;25.30;99.90
14277;DHT22;7222;57.346;12.150;2022-07-29T08:42:07;24.60;99.90
14277;DHT22;7222;57.346;12.150;2022-07-29T08:44:36;25.00;99.90
14277;DHT22;7222;57.346;12.150;2022-07-29T08:47:03;25.30;99.90
14277;DHT22;7222;57.346;12.150;2022-07-29T08:49:33;24.50;99.90
14277;DHT22;7222;57.346;12.150;2022-07-29T08:52:00;23.90;99.90
14277;DHT22;7222;57.346;12.150;2022-07-29T08:54:27;24.70;99.90
14277;DHT22;7222;57.346;12.150;2022-07-29T08:56:54;25.40;99.90
14277;DHT22;7222;57.346;12.150;2022-07-29T08:59:24;26.10;99.90
14277;DHT22;7222;57.346;12.150;2022-07-29T09:01:54;25.50;99.90
14277;DHT22;7222;57.346;12.150;2022-07-29T09:04:21;26.40;99.90
14277;DHT22;7222;57.346;12.150;2022-07-29T09:06:51;26.20;99.90
14277;DHT22;7222;57.346;12.150;2022-07-29T09:09:20;26.90;99.90
14277;DHT22;7222;57.346;12.150;2022-07-29T09:11:48;25.30;99.90
14277;DHT22;7222;57.346;12.150;2022-07-29T09:14:15;26.90;99.90
14277;DHT22;7222;57.346;12.150;2022-07-29T09:16:51;26.30;99.90
14277;DHT22;7222;57.346;12.150;2022-07-29T09:19:26;26.80;99.90
14277;DHT22;7222;57.346;12.150;2022-07-29T09:21:56;27.80;99.90
14277;DHT22;7222;57.346;12.150;2022-07-29T09:24:24;27.80;99.90
14277;DHT22;7222;57.346;12.150;2022-07-29T09:26:51;26.50;99.90
14277;DHT22;7222;57.346;12.150;2022-07-29T09:29:22;28.10;99.90
14277;DHT22;7222;57.346;12.150;2022-07-29T09:31:51;27.60;99.90
14277;DHT22;7222;57.346;12.150;2022-07-29T09:34:22;28.80;99.90
14277;DHT22;7222;57.346;12.150;2022-07-29T09:36:50;27.80;99.90
14277;DHT22;7222;57.346;12.150;2022-07-29T09:39:29;26.70;99.90
14277;DHT22;7222;57.346;12.150;2022-07-29T09:41:58;25.50;99.90
14277;DHT22;7222;57.346;12.150;2022-07-29T09:44:26;26.00;99.90
14277;DHT22;7222;57.346;12.150;2022-07-29T09:46:58;26.50;99.90
14277;DHT22;7222;57.346;12.150;2022-07-29T09:49:31;27.30;99.90
14277;DHT22;7222;57.346;12.150;2022-07-29T09:52:09;28.60;99.90
14277;DHT22;7222;57.346;12.150;2022-07-29T09:54:38;28.90;99.90
14277;DHT22;7222;57.346;12.150;2022-07-29T09:57:06;26.90;99.90
14277;DHT22;7222;57.346;12.150;2022-07-29T09:59:34;27.90;99.90
14277;DHT22;7222;57.346;12.150;2022-07-29T10:02:01;28.70;99.90
14277;DHT22;7222;57.346;12.150;2022-07-29T10:04:38;30.10;99.90
14277;DHT22;7222;57.346;12.150;2022-07-29T10:07:06;29.50;99.90
14277;DHT22;7222;57.346;12.150;2022-07-29T10:09:34;30.40;99.90
14277;DHT22;7222;57.346;12.150;2022-07-29T10:12:10;29.80;99.90
14277;DHT22;7222;57.346;12.150;2022-07-29T10:14:39;27.50;99.90
14277;DHT22;7222;57.346;12.150;2022-07-29T10:17:08;28.00;99.90
14277;DHT22;7222;57.346;12.150;2022-07-29T10:19:36;28.30;99.90
14277;DHT22;7222;57.346;12.150;2022-07-29T10:22:05;28.10;99.90
14277;DHT22;7222;57.346;12.150;2022-07-29T10:24:33;27.80;99.90
14277;DHT22;7222;57.346;12.150;2022-07-29T10:27:02;27.90;99.90
14277;DHT22;7222;57.346;12.150;2022-07-29T10:29:31;27.50;99.90
14277;DHT22;7222;57.346;12.150;2022-07-29T10:35:12;27.50;99.90
14277;DHT22;7222;57.346;12.150;2022-07-29T10:37:57;27.20;99.90
14277;DHT22;7222;57.346;12.150;2022-07-29T10:40:36;29.10;99.90
14277;DHT22;7222;57.346;12.150;2022-07-29T10:43:27;28.30;99.90
14277;DHT22;7222;57.346;12.150;2022-07-29T10:45:57;28.50;99.90
14277;DHT22;7222;57.346;12.150;2022-07-29T10:48:24;28.30;99.90
14277;DHT22;7222;57.346;12.150;2022-07-29T10:50:53;28.70;99.90
14277;DHT22;7222;57.346;12.150;2022-07-29T10:53:20;27.20;99.90
14277;DHT22;7222;57.346;12.150;2022-07-29T10:55:47;28.90;99.90
14277;DHT22;7222;57.346;12.150;2022-07-29T10:58:16;29.40;99.90
14277;DHT22;7222;57.346;12.150;2022-07-29T11:00:44;28.40;99.90
14277;DHT22;7222;57.346;12.150;2022-07-29T11:03:43;29.70;99.90
14277;DHT22;7222;57.346;12.150;2022-07-29T11:06:11;30.00;99.90
14277;DHT22;7222;57.346;12.150;2022-07-29T11:08:38;29.30;99.90
14277;DHT22;7222;57.346;12.150;2022-07-29T11:11:32;30.60;99.90
14277;DHT22;7222;57.346;12.150;2022-07-29T11:13:59;30.80;1.00
14277;DHT22;7222;57.346;12.150;2022-07-29T11:16:59;30.70;1.00
14277;DHT22;7222;57.346;12.150;2022-07-29T11:19:29;32.40;1.00
14277;DHT22;7222;57.346;12.150;2022-07-29T11:21:56;30.40;1.00
14277;DHT22;7222;57.346;12.150;2022-07-29T11:24:25;31.60;1.00
14277;DHT22;7222;57.346;12.150;2022-07-29T11:27:14;31.70;1.00
14277;DHT22;7222;57.346;12.150;2022-07-29T11:29:50;30.80;1.00
14277;DHT22;7222;57.346;12.150;2022-07-29T11:32:18;30.40;99.90
14277;DHT22;7222;57.346;12.150;2022-07-29T11:34:48;30.30;99.90
14277;DHT22;7222;57.346;12.150;2022-07-29T11:37:20;30.20;1.00
14277;DHT22;7222;57.346;12.150;2022-07-29T11:40:08;28.80;92.10
14277;DHT22;7222;57.346;12.150;2022-07-29T11:42:43;28.30;99.90
14277;DHT22;7222;57.346;12.150;2022-07-29T11:45:13;28.60;99.90
14277;DHT22;7222;57.346;12.150;2022-07-29T11:47:47;27.90;1.00
14277;DHT22;7222;57.346;12.150;2022-07-29T11:50:17;28.70;1.00
14277;DHT22;7222;57.346;12.150;2022-07-29T11:52:46;30.40;1.00
14277;DHT22;7222;57.346;12.150;2022-07-29T11:55:15;30.10;99.90
14277;DHT22;7222;57.346;12.150;2022-07-29T11:57:46;28.40;99.90
14277;DHT22;7222;57.346;12.150;2022-07-29T12:00:22;30.00;96.10
14277;DHT22;7222;57.346;12.150;2022-07-29T12:02:50;30.30;46.30
14277;DHT22;7222;57.346;12.150;2022-07-29T12:05:18;30.60;1.00
14277;DHT22;7222;57.346;12.150;2022-07-29T12:07:46;29.30;1.00
14277;DHT22;7222;57.346;12.150;2022-07-29T12:10:14;29.70;99.90
14277;DHT22;7222;57.346;12.150;2022-07-29T12:12:41;29.20;99.90
14277;DHT22;7222;57.346;12.150;2022-07-29T12:15:13;29.90;99.90
14277;DHT22;7222;57.346;12.150;2022-07-29T12:17:40;30.40;99.90
14277;DHT22;7222;57.346;12.150;2022-07-29T12:20:07;31.20;63.60
14277;DHT22;7222;57.346;12.150;2022-07-29T12:22:38;30.30;1.00
14277;DHT22;7222;57.346;12.150;2022-07-29T12:25:08;31.10;1.00
14277;DHT22;7222;57.346;12.150;2022-07-29T12:27:36;30.50;1.00
14277;DHT22;7222;57.346;12.150;2022-07-29T12:30:06;31.30;1.00
14277;DHT22;7222;57.346;12.150;2022-07-29T12:32:34;33.10;99.90
14277;DHT22;7222;57.346;12.150;2022-07-29T12:35:03;31.00;99.90
14277;DHT22;7222;57.346;12.150;2022-07-29T12:37:32;29.80;1.00
14277;DHT22;7222;57.346;12.150;2022-07-29T12:40:01;32.80;99.90
14277;DHT22;7222;57.346;12.150;2022-07-29T12:42:28;33.50;99.90
14277;DHT22;7222;57.346;12.150;2022-07-29T12:44:55;32.50;93.20
14277;DHT22;7222;57.346;12.150;2022-07-29T12:47:23;31.70;99.90
14277;DHT22;7222;57.346;12.150;2022-07-29T12:49:50;34.60;99.00
14277;DHT22;7222;57.346;12.150;2022-07-29T12:52:28;35.80;23.10
14277;DHT22;7222;57.346;12.150;2022-07-29T12:54:55;35.10;1.00
14277;DHT22;7222;57.346;12.150;2022-07-29T12:57:24;33.00;1.00
14277;DHT22;7222;57.346;12.150;2022-07-29T13:00:05;33.70;1.00
14277;DHT22;7222;57.346;12.150;2022-07-29T13:02:35;34.80;1.00
14277;DHT22;7222;57.346;12.150;2022-07-29T13:05:03;30.30;1.00
14277;DHT22;7222;57.346;12.150;2022-07-29T13:07:32;31.80;1.00
14277;DHT22;7222;57.346;12.150;2022-07-29T13:10:12;32.30;1.00
14277;DHT22;7222;57.346;12.150;2022-07-29T13:13:01;29.30;1.00
14277;DHT22;7222;57.346;12.150;2022-07-29T13:15:29;31.70;1.00
14277;DHT22;7222;57.346;12.150;2022-07-29T13:17:56;33.70;1.00
14277;DHT22;7222;57.346;12.150;2022-07-29T13:20:25;33.40;1.00
14277;DHT22;7222;57.346;12.150;2022-07-29T13:22:53;34.30;1.00
14277;DHT22;7222;57.346;12.150;2022-07-29T13:25:24;33.40;1.00
14277;DHT22;7222;57.346;12.150;2022-07-29T13:27:53;34.50;1.00
14277;DHT22;7222;57.346;12.150;2022-07-29T13:30:21;34.30;1.00
14277;DHT22;7222;57.346;12.150;2022-07-29T13:32:49;32.90;1.00
14277;DHT22;7222;57.346;12.150;2022-07-29T13:35:17;33.50;1.00
14277;DHT22;7222;57.346;12.150;2022-07-29T13:37:44;33.00;1.00
14277;DHT22;7222;57.346;12.150;2022-07-29T13:40:12;33.20;1.00
14277;DHT22;7222;57.346;12.150;2022-07-29T13:42:39;32.10;1.00
14277;DHT22;7222;57.346;12.150;2022-07-29T13:45:10;33.00;1.00
14277;DHT22;7222;57.346;12.150;2022-07-29T13:47:37;32.80;1.00
14277;DHT22;7222;57.346;12.150;2022-07-29T13:50:06;31.90;1.00
14277;DHT22;7222;57.346;12.150;2022-07-29T13:52:33;35.10;1.00
14277;DHT22;7222;57.346;12.150;2022-07-29T13:55:00;34.30;1.00
14277;DHT22;7222;57.346;12.150;2022-07-29T13:57:28;34.60;1.00
14277;DHT22;7222;57.346;12.150;2022-07-29T13:59:55;34.40;1.00
14277;DHT22;7222;57.346;12.150;2022-07-29T14:02:23;33.40;99.90
14277;DHT22;7222;57.346;12.150;2022-07-29T14:04:50;33.00;1.00
14277;DHT22;7222;57.346;12.150;2022-07-29T14:07:17;34.90;1.00
14277;DHT22;7222;57.346;12.150;2022-07-29T14:09:44;35.70;1.00
14277;DHT22;7222;57.346;12.150;2022-07-29T14:12:11;33.90;1.00
14277;DHT22;7222;57.346;12.150;2022-07-29T14:14:38;32.50;1.00
14277;DHT22;7222;57.346;12.150;2022-07-29T14:17:07;32.30;1.00
14277;DHT22;7222;57.346;12.150;2022-07-29T14:19:35;33.50;1.00
14277;DHT22;7222;57.346;12.150;2022-07-29T14:22:03;34.70;1.00
14277;DHT22;7222;57.346;12.150;2022-07-29T14:24:31;32.50;1.00
14277;DHT22;7222;57.346;12.150;2022-07-29T14:26:58;32.50;99.90
14277;DHT22;7222;57.346;12.150;2022-07-29T14:29:25;32.90;1.00
14277;DHT22;7222;57.346;12.150;2022-07-29T14:31:53;32.90;1.00
14277;DHT22;7222;57.346;12.150;2022-07-29T14:34:20;34.30;1.00
14277;DHT22;7222;57.346;12.150;2022-07-29T14:36:48;34.00;1.00
14277;DHT22;7222;57.346;12.150;2022-07-29T14:39:15;34.30;1.00
14277;DHT22;7222;57.346;12.150;2022-07-29T14:41:42;34.10;1.00
14277;DHT22;7222;57.346;12.150;2022-07-29T14:44:09;32.70;1.00
14277;DHT22;7222;57.346;12.150;2022-07-29T14:46:36;30.70;1.00
14277;DHT22;7222;57.346;12.150;2022-07-29T14:49:03;30.60;1.00
14277;DHT22;7222;57.346;12.150;2022-07-29T14:51:31;31.50;1.00
14277;DHT22;7222;57.346;12.150;2022-07-29T14:54:00;33.20;1.00
14277;DHT22;7222;57.346;12.150;2022-07-29T14:56:27;33.60;1.00
14277;DHT22;7222;57.346;12.150;2022-07-29T14:58:55;33.30;1.00
14277;DHT22;7222;57.346;12.150;2022-07-29T15:01:22;30.20;99.90
14277;DHT22;7222;57.346;12.150;2022-07-29T15:03:49;31.70;1.00
14277;DHT22;7222;57.346;12.150;2022-07-29T15:06:17;32.10;1.00
14277;DHT22;7222;57.346;12.150;2022-07-29T15:08:44;32.60;1.00
14277;DHT22;7222;57.346;12.150;2022-07-29T15:11:12;32.00;1.00
14277;DHT22;7222;57.346;12.150;2022-07-29T15:13:39;30.80;1.00
14277;DHT22;7222;57.346;12.150;2022-07-29T15:16:06;32.70;1.00
14277;DHT22;7222;57.346;12.150;2022-07-29T15:18:33;32.80;1.00
14277;DHT22;7222;57.346;12.150;2022-07-29T15:21:00;30.80;1.00
14277;DHT22;7222;57.346;12.150;2022-07-29T15:23:27;31.30;1.00
14277;DHT22;7222;57.346;12.150;2022-07-29T15:25:54;32.00;1.00
14277;DHT22;7222;57.346;12.150;2022-07-29T15:28:23;31.50;1.00
14277;DHT22;7222;57.346;12.150;2022-07-29T15:30:50;30.70;1.00
14277;DHT22;7222;57.346;12.150;2022-07-29T15:33:16;30.40;1.00
14277;DHT22;7222;57.346;12.150;2022-07-29T15:35:43;30.20;1.00
14277;DHT22;7222;57.346;12.150;2022-07-29T15:38:10;29.30;1.00
14277;DHT22;7222;57.346;12.150;2022-07-29T15:40:38;29.40;1.00
14277;DHT22;7222;57.346;12.150;2022-07-29T15:43:07;29.80;1.00
14277;DHT22;7222;57.346;12.150;2022-07-29T15:45:39;28.50;1.00
14277;DHT22;7222;57.346;12.150;2022-07-29T15:48:07;29.40;1.00
14277;DHT22;7222;57.346;12.150;2022-07-29T15:50:35;31.80;1.00
14277;DHT22;7222;57.346;12.150;2022-07-29T15:53:02;31.90;1.00